Time;durP1;ratioP1;P1;durP2;ratioP2;P2;SDS_P1;SDS_P2;PMS_P1;PMS_P2;Temp;Humidity;BMP_temperature;BMP_pressure;BME280_temperature;BME280_humidity;BME280_pressure;Samples;Min_cycle;Max_cycle;Signal;HPM_P1;HPM_P2
2022/01/09 00:01:41;;;;;;;2.25;0.70;;;;;;;;;;7385243;19;20015;-72
2022/01/09 00:04:06;;;;;;;1.25;0.60;;;;;;;;;;7389491;19;20010;-72
2022/01/09 00:06:32;;;;;;;1.10;0.50;;;;;;;;;;7387019;19;20500;-72
2022/01/09 00:08:57;;;;;;;1.02;0.57;;;;;;;;;;7386080;19;20118;-71
2022/01/09 00:11:26;;;;;;;1.02;0.68;;;;;;;;;;7389293;19;20027;-71
2022/01/09 00:13:55;;;;;;;1.30;0.70;;;;;;;;;;7389221;19;20452;-72
2022/01/09 00:16:21;;;;;;;1.33;0.85;;;;;;;;;;7391013;19;20360;-72
2022/01/09 00:18:47;;;;;;;0.90;0.55;;;;;;;;;;7388121;19;20075;-72
2022/01/09 00:21:12;;;;;;;1.20;0.88;;;;;;;;;;7386498;19;20452;-72
2022/01/09 00:23:37;;;;;;;6.78;4.00;;;;;;;;;;7390030;19;20026;-71
2022/01/09 00:26:03;;;;;;;1.55;0.95;;;;;;;;;;7388417;19;20018;-72
2022/01/09 00:28:28;;;;;;;1.48;0.70;;;;;;;;;;7384457;19;20504;-72
2022/01/09 00:30:53;;;;;;;1.20;0.60;;;;;;;;;;7388441;19;20017;-72
2022/01/09 00:33:22;;;;;;;1.05;0.57;;;;;;;;;;7390070;19;20022;-71
2022/01/09 00:35:49;;;;;;;1.42;1.10;;;;;;;;;;7387995;19;20537;-71
2022/01/09 00:38:14;;;;;;;1.13;0.57;;;;;;;;;;7386221;19;20084;-71
2022/01/09 00:40:39;;;;;;;2.30;0.80;;;;;;;;;;7387721;19;20010;-72
2022/01/09 00:43:08;;;;;;;1.10;0.63;;;;;;;;;;7387822;19;20375;-72
2022/01/09 00:45:34;;;;;;;1.55;0.80;;;;;;;;;;7386192;19;20006;-72
2022/01/09 00:48:00;;;;;;;0.98;0.85;;;;;;;;;;7389170;19;20033;-71
2022/01/09 00:50:25;;;;;;;1.20;0.45;;;;;;;;;;7388574;19;20015;-72
2022/01/09 00:52:50;;;;;;;2.65;1.40;;;;;;;;;;7388876;19;20007;-72
2022/01/09 00:55:18;;;;;;;0.63;0.50;;;;;;;;;;7389826;19;20035;-72
2022/01/09 00:57:43;;;;;;;0.82;0.40;;;;;;;;;;7384947;19;20453;-72
2022/01/09 01:00:09;;;;;;;3.22;0.80;;;;;;;;;;7388138;19;20038;-72
2022/01/09 01:02:34;;;;;;;0.90;0.70;;;;;;;;;;7388840;19;20007;-72
2022/01/09 01:05:00;;;;;;;0.95;0.70;;;;;;;;;;7385651;19;20006;-72
2022/01/09 01:07:27;;;;;;;0.60;0.50;;;;;;;;;;7386822;19;20422;-71
2022/01/09 01:09:53;;;;;;;1.25;0.63;;;;;;;;;;7385954;19;20003;-72
2022/01/09 01:12:18;;;;;;;0.50;0.45;;;;;;;;;;7388470;19;20010;-72
2022/01/09 01:14:43;;;;;;;1.20;0.70;;;;;;;;;;7387214;19;20011;-72
2022/01/09 01:17:09;;;;;;;1.30;0.93;;;;;;;;;;7387112;19;20010;-72
2022/01/09 01:19:35;;;;;;;0.50;0.50;;;;;;;;;;7385328;19;20349;-71
2022/01/09 01:22:01;;;;;;;0.60;0.57;;;;;;;;;;7386670;19;20018;-71
2022/01/09 01:24:27;;;;;;;4.07;2.00;;;;;;;;;;7385526;19;20571;-71
2022/01/09 01:26:52;;;;;;;3.63;0.60;;;;;;;;;;7385977;19;20014;-71
2022/01/09 01:29:18;;;;;;;1.30;0.38;;;;;;;;;;7382411;19;20009;-72
2022/01/09 01:31:43;;;;;;;1.17;0.52;;;;;;;;;;7384905;19;20003;-72
2022/01/09 01:34:08;;;;;;;2.47;0.90;;;;;;;;;;7385621;19;20006;-71
2022/01/09 01:36:34;;;;;;;1.15;0.75;;;;;;;;;;7386096;19;19999;-71
2022/01/09 01:38:59;;;;;;;1.45;0.68;;;;;;;;;;7384371;19;20062;-71
2022/01/09 01:41:24;;;;;;;1.10;0.65;;;;;;;;;;7386005;19;20111;-71
2022/01/09 01:43:50;;;;;;;1.08;0.38;;;;;;;;;;7386886;19;20002;-71
2022/01/09 01:46:15;;;;;;;0.55;0.50;;;;;;;;;;7387059;19;20426;-71
2022/01/09 01:48:40;;;;;;;0.75;0.57;;;;;;;;;;7383076;19;20038;-71
2022/01/09 01:51:06;;;;;;;1.13;0.70;;;;;;;;;;7385933;19;20066;-71
2022/01/09 01:53:31;;;;;;;0.63;0.47;;;;;;;;;;7386023;19;20136;-71
2022/01/09 01:55:59;;;;;;;1.23;0.57;;;;;;;;;;7385482;19;20122;-71
2022/01/09 01:58:26;;;;;;;1.17;0.75;;;;;;;;;;7386232;19;20010;-71
2022/01/09 02:00:52;;;;;;;1.60;0.68;;;;;;;;;;7386349;19;20015;-71
2022/01/09 02:03:17;;;;;;;0.80;0.50;;;;;;;;;;7385661;19;20385;-71
2022/01/09 02:05:44;;;;;;;1.08;0.70;;;;;;;;;;7385815;19;20006;-72
2022/01/09 02:08:10;;;;;;;0.77;0.60;;;;;;;;;;7384120;19;20021;-71
2022/01/09 02:10:40;;;;;;;0.95;0.43;;;;;;;;;;7385071;19;20010;-71
2022/01/09 02:13:05;;;;;;;0.57;0.55;;;;;;;;;;7385281;19;20010;-71
2022/01/09 02:15:42;;;;;;;0.63;0.50;;;;;;;;;;7383260;19;20463;-72
2022/01/09 02:18:14;;;;;;;0.98;0.50;;;;;;;;;;7383905;19;20006;-72
2022/01/09 02:20:39;;;;;;;0.52;0.40;;;;;;;;;;7386277;19;20010;-71
2022/01/09 02:23:07;;;;;;;0.82;0.43;;;;;;;;;;7384648;19;20447;-71
2022/01/09 02:25:33;;;;;;;0.73;0.73;;;;;;;;;;7382918;19;20216;-71
2022/01/09 02:27:59;;;;;;;0.50;0.35;;;;;;;;;;7384780;19;20017;-71
2022/01/09 02:30:25;;;;;;;0.50;0.50;;;;;;;;;;7382728;19;20011;-71
2022/01/09 02:32:50;;;;;;;0.82;0.50;;;;;;;;;;7386287;19;20002;-71
2022/01/09 02:35:15;;;;;;;0.50;0.35;;;;;;;;;;7383471;19;20014;-71
2022/01/09 02:37:41;;;;;;;0.28;0.25;;;;;;;;;;7384055;19;20007;-71
2022/01/09 02:40:07;;;;;;;0.43;0.30;;;;;;;;;;7382510;19;20099;-71
2022/01/09 02:42:33;;;;;;;0.38;0.30;;;;;;;;;;7385360;19;20514;-71
2022/01/09 02:44:59;;;;;;;0.93;0.30;;;;;;;;;;7380591;19;20029;-71
2022/01/09 02:47:29;;;;;;;0.20;0.20;;;;;;;;;;7386876;19;20321;-71
2022/01/09 02:49:55;;;;;;;0.80;0.50;;;;;;;;;;7388266;19;20011;-71
2022/01/09 02:52:34;;;;;;;0.40;0.20;;;;;;;;;;7392998;19;20007;-71
2022/01/09 02:55:14;;;;;;;0.60;0.22;;;;;;;;;;7392187;19;20018;-71
2022/01/09 02:57:53;;;;;;;0.95;0.40;;;;;;;;;;7391424;19;20034;-71
2022/01/09 03:00:38;;;;;;;0.82;0.30;;;;;;;;;;7392011;19;20009;-71
2022/01/09 03:03:04;;;;;;;0.35;0.30;;;;;;;;;;7392931;19;20364;-71
2022/01/09 03:05:30;;;;;;;2.28;0.30;;;;;;;;;;7389621;19;22051;-71
2022/01/09 03:07:56;;;;;;;0.20;0.20;;;;;;;;;;7388479;19;20020;-71
2022/01/09 03:10:22;;;;;;;0.20;0.20;;;;;;;;;;7389374;19;20007;-71
2022/01/09 03:12:50;;;;;;;0.40;0.20;;;;;;;;;;7391888;19;20010;-71
2022/01/09 03:15:16;;;;;;;0.40;0.20;;;;;;;;;;7389734;19;20407;-71
2022/01/09 03:17:42;;;;;;;0.20;0.10;;;;;;;;;;7388830;19;20032;-71
2022/01/09 03:20:11;;;;;;;1.55;0.32;;;;;;;;;;7390586;19;20026;-71
2022/01/09 03:22:36;;;;;;;0.30;0.30;;;;;;;;;;7391810;19;20006;-72
2022/01/09 03:25:03;;;;;;;0.30;0.25;;;;;;;;;;7386819;19;20044;-71
2022/01/09 03:27:28;;;;;;;0.20;0.20;;;;;;;;;;7391022;19;20804;-71
2022/01/09 03:29:53;;;;;;;0.40;0.30;;;;;;;;;;7387035;19;20006;-71
2022/01/09 03:32:18;;;;;;;0.22;0.13;;;;;;;;;;7390333;19;20111;-71
2022/01/09 03:34:44;;;;;;;0.65;0.28;;;;;;;;;;7390003;19;20018;-71
2022/01/09 03:37:09;;;;;;;0.20;0.20;;;;;;;;;;7389313;19;20010;-72
2022/01/09 03:39:34;;;;;;;0.52;0.40;;;;;;;;;;7386983;19;20017;-71
2022/01/09 03:42:00;;;;;;;1.95;0.80;;;;;;;;;;7390629;19;20038;-71
2022/01/09 03:44:26;;;;;;;0.75;0.45;;;;;;;;;;7387879;19;20017;-71
2022/01/09 03:46:52;;;;;;;0.30;0.20;;;;;;;;;;7391547;19;20006;-71
2022/01/09 03:49:17;;;;;;;0.50;0.17;;;;;;;;;;7386849;19;20014;-71
2022/01/09 03:51:44;;;;;;;0.10;0.10;;;;;;;;;;7391064;19;20018;-71
2022/01/09 03:54:10;;;;;;;0.15;0.10;;;;;;;;;;7388006;19;20365;-71
2022/01/09 03:56:35;;;;;;;0.50;0.20;;;;;;;;;;7390314;19;20469;-71
2022/01/09 03:59:00;;;;;;;0.30;0.13;;;;;;;;;;7385683;19;20077;-71
2022/01/09 04:01:26;;;;;;;1.67;0.30;;;;;;;;;;7389003;19;20010;-71
2022/01/09 04:03:51;;;;;;;0.30;0.22;;;;;;;;;;7388941;19;20138;-71
2022/01/09 04:06:17;;;;;;;1.63;0.20;;;;;;;;;;7390687;19;20006;-71
2022/01/09 04:08:43;;;;;;;0.20;0.20;;;;;;;;;;7386029;19;20034;-71
2022/01/09 04:11:09;;;;;;;1.15;0.20;;;;;;;;;;7389470;19;20007;-71
2022/01/09 04:13:37;;;;;;;0.38;0.28;;;;;;;;;;7391028;19;20015;-71
2022/01/09 04:16:04;;;;;;;0.28;0.10;;;;;;;;;;7391710;19;20018;-71
2022/01/09 04:18:31;;;;;;;0.15;0.08;;;;;;;;;;7387874;19;20014;-71
2022/01/09 04:20:57;;;;;;;0.10;0.00;;;;;;;;;;7391499;19;20106;-70
2022/01/09 04:23:22;;;;;;;1.45;0.10;;;;;;;;;;7391065;19;20034;-71
2022/01/09 04:25:48;;;;;;;0.10;0.10;;;;;;;;;;7389282;19;20042;-71
2022/01/09 04:28:15;;;;;;;0.40;0.22;;;;;;;;;;7389399;19;20011;-71
2022/01/09 04:30:40;;;;;;;0.35;0.10;;;;;;;;;;7389840;19;20007;-71
2022/01/09 04:33:06;;;;;;;1.35;0.20;;;;;;;;;;7390657;19;20014;-71
2022/01/09 04:35:31;;;;;;;0.20;0.10;;;;;;;;;;7389792;19;19999;-71
2022/01/09 04:37:57;;;;;;;0.20;0.10;;;;;;;;;;7389056;19;20144;-71
2022/01/09 04:40:23;;;;;;;0.10;0.10;;;;;;;;;;7387201;19;20009;-71
2022/01/09 04:42:53;;;;;;;0.08;0.08;;;;;;;;;;7389596;19;20034;-71
2022/01/09 04:45:20;;;;;;;0.43;0.22;;;;;;;;;;7387850;19;20417;-71
2022/01/09 04:47:48;;;;;;;0.63;0.20;;;;;;;;;;7389774;19;20015;-71
2022/01/09 04:50:20;;;;;;;0.10;0.10;;;;;;;;;;7387773;19;20014;-71
2022/01/09 04:52:45;;;;;;;0.20;0.20;;;;;;;;;;7387867;19;20006;-71
2022/01/09 04:55:11;;;;;;;0.98;0.47;;;;;;;;;;7389067;19;20345;-71
2022/01/09 04:57:36;;;;;;;0.65;0.43;;;;;;;;;;7389405;19;20417;-71
2022/01/09 05:00:05;;;;;;;0.73;0.30;;;;;;;;;;7383457;19;20309;-71
2022/01/09 05:02:31;;;;;;;0.25;0.10;;;;;;;;;;7389709;19;20010;-71
2022/01/09 05:04:56;;;;;;;0.32;0.15;;;;;;;;;;7386849;19;20026;-71
2022/01/09 05:07:21;;;;;;;0.10;0.10;;;;;;;;;;7387209;19;20006;-71
2022/01/09 05:09:47;;;;;;;0.20;0.20;;;;;;;;;;7384161;19;20010;-71
2022/01/09 05:12:12;;;;;;;0.17;0.08;;;;;;;;;;7384956;19;20014;-71
2022/01/09 05:14:37;;;;;;;0.20;0.10;;;;;;;;;;7389060;19;20007;-71
2022/01/09 05:17:03;;;;;;;0.30;0.13;;;;;;;;;;7388501;19;20014;-71
2022/01/09 05:19:30;;;;;;;0.03;0.00;;;;;;;;;;7386166;19;20005;-71
2022/01/09 05:21:57;;;;;;;0.30;0.20;;;;;;;;;;7389522;19;20006;-71
2022/01/09 05:24:22;;;;;;;0.10;0.10;;;;;;;;;;7384917;19;20086;-71
2022/01/09 05:26:48;;;;;;;0.10;0.10;;;;;;;;;;7388473;19;20010;-71
2022/01/09 05:29:13;;;;;;;0.17;0.10;;;;;;;;;;7386684;19;20066;-71
2022/01/09 05:31:39;;;;;;;0.35;0.20;;;;;;;;;;7389195;19;20035;-71
2022/01/09 05:34:05;;;;;;;0.47;0.20;;;;;;;;;;7384959;19;20449;-71
2022/01/09 05:36:30;;;;;;;0.80;0.40;;;;;;;;;;7387165;19;20073;-71
2022/01/09 05:38:56;;;;;;;1.35;0.20;;;;;;;;;;7385178;19;20011;-71
2022/01/09 05:41:21;;;;;;;0.08;0.08;;;;;;;;;;7387247;19;20011;-71
2022/01/09 05:43:47;;;;;;;0.47;0.25;;;;;;;;;;7388083;19;20449;-71
2022/01/09 05:46:12;;;;;;;0.10;0.10;;;;;;;;;;7387647;19;20006;-71
2022/01/09 05:48:38;;;;;;;0.45;0.10;;;;;;;;;;7385393;19;20010;-71
2022/01/09 05:51:03;;;;;;;1.40;0.77;;;;;;;;;;7388312;19;20011;-71
2022/01/09 05:53:28;;;;;;;0.05;0.05;;;;;;;;;;7386967;19;19999;-71
2022/01/09 05:55:53;;;;;;;0.20;0.17;;;;;;;;;;7387859;19;20034;-71
2022/01/09 05:58:19;;;;;;;0.08;0.08;;;;;;;;;;7385482;19;20007;-71
2022/01/09 06:00:44;;;;;;;0.30;0.10;;;;;;;;;;7384746;19;20317;-71
2022/01/09 06:03:09;;;;;;;0.10;0.10;;;;;;;;;;7385495;19;20456;-71
2022/01/09 06:05:35;;;;;;;0.63;0.20;;;;;;;;;;7384928;19;20046;-71
2022/01/09 06:08:00;;;;;;;0.00;0.00;;;;;;;;;;7382718;19;20007;-71
2022/01/09 06:10:26;;;;;;;0.15;0.10;;;;;;;;;;7386034;19;20014;-71
2022/01/09 06:12:51;;;;;;;0.40;0.10;;;;;;;;;;7386974;19;20018;-71
2022/01/09 06:15:16;;;;;;;0.10;0.10;;;;;;;;;;7385048;19;20021;-71
2022/01/09 06:17:44;;;;;;;0.55;0.10;;;;;;;;;;7386632;19;20014;-71
2022/01/09 06:20:11;;;;;;;0.00;0.00;;;;;;;;;;7383185;19;20013;-71
2022/01/09 06:22:38;;;;;;;0.10;0.10;;;;;;;;;;7386391;19;20003;-71
2022/01/09 06:25:04;;;;;;;0.45;0.10;;;;;;;;;;7383001;19;20038;-71
2022/01/09 06:27:30;;;;;;;0.13;0.08;;;;;;;;;;7385158;19;20006;-71
2022/01/09 06:29:55;;;;;;;0.00;0.00;;;;;;;;;;7383388;19;20023;-71
2022/01/09 06:32:21;;;;;;;0.20;0.10;;;;;;;;;;7385392;19;20010;-71
2022/01/09 06:34:46;;;;;;;0.03;0.00;;;;;;;;;;7383596;19;20137;-71
2022/01/09 06:37:12;;;;;;;1.35;0.32;;;;;;;;;;7383389;19;20066;-71
2022/01/09 06:39:41;;;;;;;0.20;0.10;;;;;;;;;;7381663;19;20021;-71
2022/01/09 06:42:06;;;;;;;0.70;0.00;;;;;;;;;;7383631;19;20006;-71
2022/01/09 06:44:31;;;;;;;0.20;0.10;;;;;;;;;;7383893;19;20002;-71
2022/01/09 06:46:57;;;;;;;1.00;0.28;;;;;;;;;;7385983;19;19999;-71
2022/01/09 06:49:22;;;;;;;0.00;0.00;;;;;;;;;;7379521;19;20001;-71
2022/01/09 06:51:48;;;;;;;0.13;0.10;;;;;;;;;;7386083;19;20010;-71
2022/01/09 06:54:13;;;;;;;0.00;0.00;;;;;;;;;;7383926;19;20023;-71
2022/01/09 06:56:39;;;;;;;0.00;0.00;;;;;;;;;;7381253;19;20006;-71
2022/01/09 06:59:05;;;;;;;0.05;0.03;;;;;;;;;;7379639;19;20027;-71
2022/01/09 07:01:30;;;;;;;0.17;0.10;;;;;;;;;;7383765;19;20010;-71
2022/01/09 07:03:55;;;;;;;0.00;0.00;;;;;;;;;;7382764;19;20172;-71
2022/01/09 07:06:21;;;;;;;0.00;0.00;;;;;;;;;;7383125;19;20113;-71
2022/01/09 07:08:46;;;;;;;0.00;0.00;;;;;;;;;;7379599;19;20014;-71
2022/01/09 07:11:11;;;;;;;0.00;0.00;;;;;;;;;;7384335;19;20011;-71
2022/01/09 07:13:36;;;;;;;0.10;0.00;;;;;;;;;;7381367;19;20009;-71
2022/01/09 07:16:02;;;;;;;1.08;0.00;;;;;;;;;;7381588;19;20006;-71
2022/01/09 07:18:27;;;;;;;0.10;0.10;;;;;;;;;;7380526;19;20014;-71
2022/01/09 07:20:52;;;;;;;0.05;0.05;;;;;;;;;;7382135;19;20003;-71
2022/01/09 07:23:18;;;;;;;0.17;0.10;;;;;;;;;;7383776;19;20009;-71
2022/01/09 07:25:43;;;;;;;0.15;0.15;;;;;;;;;;7380920;19;20010;-72
2022/01/09 07:28:09;;;;;;;0.00;0.00;;;;;;;;;;7381675;19;20318;-71
2022/01/09 07:30:34;;;;;;;0.00;0.00;;;;;;;;;;7381625;19;20006;-71
2022/01/09 07:32:59;;;;;;;0.68;0.20;;;;;;;;;;7381649;19;20126;-72
2022/01/09 07:35:26;;;;;;;0.00;0.00;;;;;;;;;;7386133;19;20007;-71
2022/01/09 07:37:51;;;;;;;0.25;0.00;;;;;;;;;;7389017;19;20010;-71
2022/01/09 07:40:17;;;;;;;0.22;0.10;;;;;;;;;;7389019;19;20003;-72
2022/01/09 07:42:42;;;;;;;0.73;0.20;;;;;;;;;;7388615;19;20079;-71
2022/01/09 07:45:08;;;;;;;0.13;0.10;;;;;;;;;;7388713;19;20022;-71
2022/01/09 07:47:35;;;;;;;0.55;0.40;;;;;;;;;;7387506;19;20410;-73
2022/01/09 07:50:00;;;;;;;0.20;0.15;;;;;;;;;;7388201;19;19998;-73
2022/01/09 07:52:26;;;;;;;0.52;0.52;;;;;;;;;;7388365;19;20490;-73
2022/01/09 07:54:51;;;;;;;0.10;0.10;;;;;;;;;;7384584;19;20010;-73
2022/01/09 07:57:17;;;;;;;0.10;0.10;;;;;;;;;;7386384;19;20018;-72
2022/01/09 07:59:42;;;;;;;0.85;0.10;;;;;;;;;;7384141;19;20007;-71
2022/01/09 08:02:09;;;;;;;0.00;0.00;;;;;;;;;;7384725;19;20018;-71
2022/01/09 08:04:34;;;;;;;0.30;0.30;;;;;;;;;;7385096;19;20013;-71
2022/01/09 08:06:59;;;;;;;0.13;0.10;;;;;;;;;;7390315;19;20010;-71
2022/01/09 08:09:25;;;;;;;0.10;0.10;;;;;;;;;;7385459;19;20005;-71
2022/01/09 08:11:50;;;;;;;0.00;0.00;;;;;;;;;;7388754;19;20393;-70
2022/01/09 08:14:15;;;;;;;0.13;0.13;;;;;;;;;;7388554;19;20103;-70
2022/01/09 08:16:41;;;;;;;0.20;0.10;;;;;;;;;;7390421;19;20413;-70
2022/01/09 08:19:06;;;;;;;0.40;0.40;;;;;;;;;;7384190;19;20099;-70
2022/01/09 08:21:31;;;;;;;0.20;0.13;;;;;;;;;;7387902;19;19995;-71
2022/01/09 08:23:57;;;;;;;0.60;0.40;;;;;;;;;;7386703;19;20027;-70
2022/01/09 08:26:23;;;;;;;1.05;0.70;;;;;;;;;;7386786;19;20006;-73
2022/01/09 08:28:48;;;;;;;0.30;0.10;;;;;;;;;;7386494;19;20166;-71
2022/01/09 08:31:18;;;;;;;0.30;0.28;;;;;;;;;;7387312;19;20006;-71
2022/01/09 08:33:44;;;;;;;0.10;0.10;;;;;;;;;;7388762;19;20418;-73
2022/01/09 08:36:10;;;;;;;0.22;0.22;;;;;;;;;;7388731;19;20012;-72
2022/01/09 08:38:35;;;;;;;0.40;0.35;;;;;;;;;;7382631;19;20396;-73
2022/01/09 08:41:00;;;;;;;0.10;0.10;;;;;;;;;;7384141;19;20006;-73
2022/01/09 08:43:26;;;;;;;2.85;0.10;;;;;;;;;;7389114;19;20013;-72
2022/01/09 08:45:51;;;;;;;0.10;0.10;;;;;;;;;;7384401;19;20007;-71
2022/01/09 08:48:17;;;;;;;0.28;0.13;;;;;;;;;;7386755;19;20090;-71
2022/01/09 08:50:43;;;;;;;0.82;0.20;;;;;;;;;;7384997;19;20364;-71
2022/01/09 08:53:09;;;;;;;0.10;0.10;;;;;;;;;;7390537;19;20010;-70
2022/01/09 08:55:34;;;;;;;0.25;0.22;;;;;;;;;;7384261;19;20361;-70
2022/01/09 08:57:59;;;;;;;0.65;0.52;;;;;;;;;;7388323;19;20121;-70
2022/01/09 09:00:26;;;;;;;0.68;0.45;;;;;;;;;;7386180;19;20643;-71
2022/01/09 09:02:51;;;;;;;0.40;0.20;;;;;;;;;;7385889;19;20005;-70
2022/01/09 09:05:17;;;;;;;0.73;0.22;;;;;;;;;;7384098;19;20341;-70
2022/01/09 09:07:42;;;;;;;0.88;0.30;;;;;;;;;;7386116;19;20010;-70
2022/01/09 09:10:09;;;;;;;0.40;0.30;;;;;;;;;;7379963;19;20117;-70
2022/01/09 09:12:34;;;;;;;0.43;0.40;;;;;;;;;;7386884;19;20006;-70
2022/01/09 09:15:03;;;;;;;2.00;0.35;;;;;;;;;;7387680;19;20048;-71
2022/01/09 09:17:30;;;;;;;1.35;0.70;;;;;;;;;;7386953;19;20033;-70
2022/01/09 09:19:56;;;;;;;0.43;0.43;;;;;;;;;;7378093;19;20030;-71
2022/01/09 09:22:21;;;;;;;0.77;0.50;;;;;;;;;;7387384;19;20010;-70
2022/01/09 09:24:47;;;;;;;1.50;0.57;;;;;;;;;;7383698;19;20026;-70
2022/01/09 09:27:13;;;;;;;0.30;0.22;;;;;;;;;;7386420;19;20361;-70
2022/01/09 09:29:38;;;;;;;3.00;1.20;;;;;;;;;;7385177;19;20053;-71
2022/01/09 09:32:04;;;;;;;1.10;0.60;;;;;;;;;;7388124;19;20013;-70
2022/01/09 09:34:29;;;;;;;1.75;0.77;;;;;;;;;;7384336;19;20432;-71
2022/01/09 09:36:55;;;;;;;0.80;0.50;;;;;;;;;;7387533;19;20011;-70
2022/01/09 09:39:20;;;;;;;0.30;0.15;;;;;;;;;;7384362;19;20373;-70
2022/01/09 09:41:46;;;;;;;0.95;0.43;;;;;;;;;;7384955;19;20003;-70
2022/01/09 09:44:12;;;;;;;1.20;0.40;;;;;;;;;;7387080;19;20460;-71
2022/01/09 09:46:38;;;;;;;0.90;0.50;;;;;;;;;;7385075;19;21388;-70
2022/01/09 09:49:04;;;;;;;1.77;0.52;;;;;;;;;;7382772;19;20059;-70
2022/01/09 09:51:30;;;;;;;2.35;0.85;;;;;;;;;;7386822;19;20027;-71
2022/01/09 09:53:56;;;;;;;0.95;0.82;;;;;;;;;;7382740;19;20456;-71
2022/01/09 09:56:21;;;;;;;0.80;0.50;;;;;;;;;;7382133;19;21017;-71
2022/01/09 09:58:49;;;;;;;1.33;0.40;;;;;;;;;;7382282;19;20027;-70
2022/01/09 10:01:23;;;;;;;1.88;0.40;;;;;;;;;;7384481;19;20022;-70
2022/01/09 10:04:01;;;;;;;3.38;0.45;;;;;;;;;;7385198;19;20017;-70
2022/01/09 10:06:46;;;;;;;2.65;0.35;;;;;;;;;;7379783;19;20010;-70
2022/01/09 10:09:19;;;;;;;3.03;0.50;;;;;;;;;;7381712;19;20010;-70
2022/01/09 10:11:46;;;;;;;1.45;0.20;;;;;;;;;;7385498;19;20452;-70
2022/01/09 10:14:24;;;;;;;0.32;0.32;;;;;;;;;;7382620;19;20006;-71
2022/01/09 10:17:25;;;;;;;7.38;1.05;;;;;;;;;;7380166;19;20013;-70
2022/01/09 10:19:58;;;;;;;1.58;0.43;;;;;;;;;;7377209;19;20006;-70
2022/01/09 10:22:36;;;;;;;1.05;0.40;;;;;;;;;;7381305;19;20484;-70
2022/01/09 10:25:20;;;;;;;1.38;0.50;;;;;;;;;;7380081;19;20330;-70
2022/01/09 10:27:47;;;;;;;1.55;0.70;;;;;;;;;;7385373;19;20010;-70
2022/01/09 10:30:12;;;;;;;1.45;0.50;;;;;;;;;;7382420;19;20476;-70
2022/01/09 10:32:38;;;;;;;2.67;0.55;;;;;;;;;;7382189;19;20006;-70
2022/01/09 10:35:08;;;;;;;6.75;1.38;;;;;;;;;;7384669;19;20459;-70
2022/01/09 10:37:35;;;;;;;4.53;0.93;;;;;;;;;;7384268;19;20006;-70
2022/01/09 10:40:02;;;;;;;1.80;0.73;;;;;;;;;;7378812;19;20006;-70
2022/01/09 10:42:28;;;;;;;2.38;0.90;;;;;;;;;;7385659;19;20078;-70
2022/01/09 10:44:53;;;;;;;1.42;0.63;;;;;;;;;;7382942;19;20003;-70
2022/01/09 10:47:19;;;;;;;2.17;0.82;;;;;;;;;;7383439;19;20003;-70
2022/01/09 10:49:50;;;;;;;2.33;0.80;;;;;;;;;;7381066;19;20071;-70
2022/01/09 10:52:28;;;;;;;6.05;0.98;;;;;;;;;;7385136;19;20026;-70
2022/01/09 10:54:55;;;;;;;3.83;0.95;;;;;;;;;;7382864;19;20015;-69
2022/01/09 10:57:23;;;;;;;3.30;1.20;;;;;;;;;;7329510;19;20461;-70
2022/01/09 10:59:49;;;;;;;2.78;0.80;;;;;;;;;;7379631;19;20016;-70
2022/01/09 11:02:15;;;;;;;1.50;0.70;;;;;;;;;;7384133;19;20021;-70
2022/01/09 11:04:42;;;;;;;1.73;0.60;;;;;;;;;;7381201;19;20002;-70
2022/01/09 11:07:08;;;;;;;1.13;0.50;;;;;;;;;;7384439;19;20010;-70
2022/01/09 11:09:34;;;;;;;3.55;0.70;;;;;;;;;;7385203;19;20002;-70
2022/01/09 11:12:02;;;;;;;3.03;0.63;;;;;;;;;;7393200;19;20350;-69
2022/01/09 11:14:28;;;;;;;2.20;0.45;;;;;;;;;;7386758;19;20017;-70
2022/01/09 11:16:56;;;;;;;4.32;0.65;;;;;;;;;;7391712;19;20100;-69
2022/01/09 11:19:24;;;;;;;1.98;0.52;;;;;;;;;;7389889;19;20018;-70
2022/01/09 11:21:55;;;;;;;1.90;0.60;;;;;;;;;;7388822;19;20574;-70
2022/01/09 11:24:51;;;;;;;2.15;0.55;;;;;;;;;;7389936;19;20003;-70
2022/01/09 11:27:16;;;;;;;1.55;0.47;;;;;;;;;;7389180;19;20007;-70
2022/01/09 11:30:00;;;;;;;2.80;0.75;;;;;;;;;;7388337;19;20326;-71
2022/01/09 11:32:57;;;;;;;0.22;0.20;;;;;;;;;;7391669;19;20006;-70
2022/01/09 11:35:50;;;;;;;3.15;0.63;;;;;;;;;;7390201;19;20006;-70
2022/01/09 11:38:43;;;;;;;5.72;0.50;;;;;;;;;;7390338;19;20007;-70
2022/01/09 11:41:24;;;;;;;2.05;0.50;;;;;;;;;;7390508;19;20038;-70
2022/01/09 11:43:59;;;;;;;2.05;0.55;;;;;;;;;;7387822;19;20063;-70
2022/01/09 11:46:27;;;;;;;4.80;0.80;;;;;;;;;;7388203;19;20321;-71
2022/01/09 11:48:53;;;;;;;5.32;0.68;;;;;;;;;;7387464;19;19998;-71
2022/01/09 11:51:20;;;;;;;3.55;0.77;;;;;;;;;;7390528;19;20017;-70
2022/01/09 11:54:04;;;;;;;6.50;0.80;;;;;;;;;;7387274;19;19994;-72
2022/01/09 11:56:41;;;;;;;1.52;0.50;;;;;;;;;;7390476;19;20011;-71
2022/01/09 11:59:21;;;;;;;2.72;0.75;;;;;;;;;;7389178;19;19998;-71
2022/01/09 12:01:48;;;;;;;1.63;0.68;;;;;;;;;;7390759;19;20014;-71
2022/01/09 12:04:32;;;;;;;1.02;0.50;;;;;;;;;;7390444;19;20063;-70
2022/01/09 12:07:10;;;;;;;2.35;0.65;;;;;;;;;;7388541;19;20006;-69
2022/01/09 12:09:47;;;;;;;3.90;1.05;;;;;;;;;;7386858;19;20498;-69
2022/01/09 12:12:33;;;;;;;2.25;0.60;;;;;;;;;;7390653;19;20015;-69
2022/01/09 12:15:04;;;;;;;2.92;0.60;;;;;;;;;;7386229;19;20026;-70
2022/01/09 12:17:43;;;;;;;4.70;0.60;;;;;;;;;;7390190;19;20445;-70
2022/01/09 12:20:31;;;;;;;2.85;0.52;;;;;;;;;;7388520;19;20079;-69
2022/01/09 12:23:02;;;;;;;3.25;0.98;;;;;;;;;;7384647;19;20014;-69
2022/01/09 12:25:30;;;;;;;2.75;0.70;;;;;;;;;;7386328;19;20469;-69
2022/01/09 12:28:10;;;;;;;1.92;0.85;;;;;;;;;;7389755;19;20011;-69
2022/01/09 12:30:36;;;;;;;3.33;1.27;;;;;;;;;;7385065;19;20002;-70
2022/01/09 12:33:05;;;;;;;3.65;1.27;;;;;;;;;;7389632;19;20424;-70
2022/01/09 12:35:32;;;;;;;2.72;1.10;;;;;;;;;;7386029;19;20071;-69
2022/01/09 12:38:00;;;;;;;5.03;1.50;;;;;;;;;;7385239;19;20354;-69
2022/01/09 12:40:28;;;;;;;4.78;1.20;;;;;;;;;;7387078;19;20028;-70
2022/01/09 12:42:56;;;;;;;4.28;1.27;;;;;;;;;;7388545;19;20006;-69
2022/01/09 12:45:27;;;;;;;5.90;1.95;;;;;;;;;;7381937;19;20034;-70
2022/01/09 12:47:54;;;;;;;7.93;2.17;;;;;;;;;;7389873;19;20014;-70
2022/01/09 12:50:29;;;;;;;3.42;1.95;;;;;;;;;;7385942;19;20329;-70
2022/01/09 12:53:14;;;;;;;6.10;1.17;;;;;;;;;;7388245;19;20001;-69
2022/01/09 12:56:05;;;;;;;3.03;0.68;;;;;;;;;;7388801;19;20018;-70
2022/01/09 12:58:48;;;;;;;8.27;1.08;;;;;;;;;;7388296;19;20688;-69
2022/01/09 13:01:13;;;;;;;3.58;0.75;;;;;;;;;;7389080;19;20006;-70
2022/01/09 13:03:43;;;;;;;5.15;1.40;;;;;;;;;;7390098;19;20014;-70
2022/01/09 13:06:11;;;;;;;3.70;1.73;;;;;;;;;;7385939;19;20015;-69
2022/01/09 13:08:40;;;;;;;4.25;1.00;;;;;;;;;;7384312;19;20065;-70
2022/01/09 13:11:08;;;;;;;4.63;1.08;;;;;;;;;;7384457;19;20044;-70
2022/01/09 13:13:35;;;;;;;6.10;1.00;;;;;;;;;;7389045;19;20011;-70
2022/01/09 13:16:26;;;;;;;4.22;1.48;;;;;;;;;;7388420;19;20058;-70
2022/01/09 13:18:56;;;;;;;5.40;1.00;;;;;;;;;;7385885;19;20079;-70
2022/01/09 13:21:28;;;;;;;4.60;0.88;;;;;;;;;;7388746;19;20012;-69
2022/01/09 13:24:11;;;;;;;1.95;0.57;;;;;;;;;;7388491;19;19998;-70
2022/01/09 13:26:49;;;;;;;3.17;0.80;;;;;;;;;;7384624;19;20831;-69
2022/01/09 13:29:17;;;;;;;3.78;0.85;;;;;;;;;;7386786;19;20017;-70
2022/01/09 13:31:46;;;;;;;1.80;0.75;;;;;;;;;;7380935;19;20011;-70
2022/01/09 13:34:15;;;;;;;3.42;0.60;;;;;;;;;;7386565;19;20058;-70
2022/01/09 13:36:48;;;;;;;0.90;0.60;;;;;;;;;;7387650;19;20490;-70
2022/01/09 13:39:19;;;;;;;1.83;0.52;;;;;;;;;;7379467;19;20010;-70
2022/01/09 13:41:51;;;;;;;2.95;0.75;;;;;;;;;;7382277;19;20713;-70
2022/01/09 13:44:23;;;;;;;2.35;1.30;;;;;;;;;;7382222;19;20006;-70
2022/01/09 13:47:10;;;;;;;3.20;1.35;;;;;;;;;;7384395;19;20548;-70
2022/01/09 13:49:38;;;;;;;1.58;0.80;;;;;;;;;;7383455;19;20021;-70
2022/01/09 13:52:18;;;;;;;1.42;0.70;;;;;;;;;;7384246;19;20499;-69
2022/01/09 13:54:56;;;;;;;3.97;0.90;;;;;;;;;;7385418;19;20014;-70
2022/01/09 13:57:26;;;;;;;1.70;0.77;;;;;;;;;;7384472;19;20347;-70
2022/01/09 13:59:52;;;;;;;2.47;0.73;;;;;;;;;;7384531;19;20024;-70
2022/01/09 14:02:20;;;;;;;1.45;0.55;;;;;;;;;;7384190;19;20441;-70
2022/01/09 14:05:06;;;;;;;5.30;0.70;;;;;;;;;;7385019;19;20011;-70
2022/01/09 14:07:31;;;;;;;2.17;0.70;;;;;;;;;;7384402;19;20103;-70
2022/01/09 14:09:57;;;;;;;2.95;0.70;;;;;;;;;;7381068;19;20454;-70
2022/01/09 14:12:23;;;;;;;1.52;0.70;;;;;;;;;;7383904;19;20034;-70
2022/01/09 14:14:49;;;;;;;2.67;0.70;;;;;;;;;;7380360;19;20034;-70
2022/01/09 14:17:26;;;;;;;2.78;0.70;;;;;;;;;;7381760;19;19999;-70
2022/01/09 14:19:52;;;;;;;2.83;0.60;;;;;;;;;;7382598;19;20456;-70
2022/01/09 14:22:18;;;;;;;6.30;0.90;;;;;;;;;;7384985;19;19998;-70
2022/01/09 14:25:07;;;;;;;1.73;0.60;;;;;;;;;;7381531;19;20102;-70
2022/01/09 14:27:36;;;;;;;1.60;0.80;;;;;;;;;;7382783;19;20521;-71
2022/01/09 14:30:20;;;;;;;2.38;0.50;;;;;;;;;;7379578;19;20073;-71
2022/01/09 14:32:51;;;;;;;4.65;2.00;;;;;;;;;;7384375;19;20006;-71
2022/01/09 14:35:30;;;;;;;2.55;1.00;;;;;;;;;;7383000;19;20036;-71
2022/01/09 14:38:00;;;;;;;1.50;0.98;;;;;;;;;;7381527;19;20007;-71
2022/01/09 14:40:26;;;;;;;1.33;0.60;;;;;;;;;;7384585;19;20340;-71
2022/01/09 14:42:51;;;;;;;4.25;0.63;;;;;;;;;;7382897;19;20018;-71
2022/01/09 14:45:18;;;;;;;2.03;0.57;;;;;;;;;;7384536;19;20118;-70
2022/01/09 14:47:43;;;;;;;1.08;0.75;;;;;;;;;;7388055;19;20015;-71
2022/01/09 14:50:09;;;;;;;2.40;1.38;;;;;;;;;;7390020;19;20002;-71